X  Schlie├čen METAR Luftfahrt Wetterdaten     EDDM Munich Airport
Temperatur
8°C Temperatur
8°C Taupunkt
100% Feuchtigkeit



Wind
2 km/h
1 MPS
0 m/s
1 Ktn



Kein Wind
N
Aktuelle Wetterlage

Klar Klar
Luftdruck 1016.92 (hPa) - 30.03 (inchHg)
Sichtweite 6.2 (Meile) - 10 (Km)
Flughafen
Flughafen Code EDDM

Position : Munich Airport
Entfernung: 73 (Km)

Metar:
EDDM 130320Z AUTO VRB01KT CAVOK 08/08 Q1017 NOSIG

Zeit: 13-08-2022 05:20 CEST